createdAt,value
2023-02-05T00:08:55.102Z,82.37
2023-02-05T00:19:00.339Z,85.40
2023-02-05T00:29:04.429Z,83.50
2023-02-05T00:39:11.506Z,83.33
2023-02-05T00:49:15.910Z,83.10
2023-02-05T00:59:22.316Z,83.20
2023-02-05T01:09:27.834Z,83.90
2023-02-05T01:19:34.889Z,82.30
2023-02-05T01:29:38.809Z,82.27
2023-02-05T01:39:44.237Z,84.40
2023-02-05T01:49:48.045Z,81.87
2023-02-05T01:59:53.355Z,82.73
2023-02-05T02:09:57.172Z,86.13
2023-02-05T02:20:06.386Z,86.53
2023-02-05T02:30:20.619Z,85.67
2023-02-05T02:40:31.813Z,83.30
2023-02-05T02:50:42.648Z,84.10
2023-02-05T03:00:48.179Z,87.53
2023-02-05T03:11:00.939Z,84.80
2023-02-05T03:21:12.696Z,84.73
2023-02-05T03:31:22.393Z,84.80
2023-02-05T03:41:54.052Z,86.93
2023-02-05T03:52:08.617Z,86.93
2023-02-05T04:02:13.032Z,82.07
2023-02-05T04:12:21.581Z,84.80
2023-02-05T04:22:25.495Z,82.73
2023-02-05T04:32:30.688Z,86.47
2023-02-05T04:42:34.936Z,81.03
2023-02-05T04:52:40.139Z,86.00
2023-02-05T05:02:44.112Z,86.90
2023-02-05T05:12:49.421Z,87.40
2023-02-05T05:22:53.274Z,87.77
2023-02-05T05:32:58.549Z,84.83
2023-02-05T05:43:19.522Z,83.60
2023-02-05T05:53:25.092Z,85.37
2023-02-05T06:03:29.040Z,85.90
2023-02-05T06:13:34.908Z,83.10
2023-02-05T06:23:38.834Z,81.63
2023-02-05T06:33:44.135Z,85.10
2023-02-05T06:43:47.861Z,86.30
2023-02-05T06:53:55.312Z,85.57
2023-02-05T07:03:59.089Z,90.93
2023-02-05T07:14:04.986Z,92.73
2023-02-05T07:24:09.284Z,90.23
2023-02-05T07:34:14.490Z,93.67
2023-02-05T07:44:18.256Z,94.40
2023-02-05T07:54:23.456Z,93.90
2023-02-05T08:04:27.372Z,96.57
2023-02-05T08:14:32.617Z,98.13
2023-02-05T08:24:36.394Z,102.27
2023-02-05T08:34:41.490Z,97.27
2023-02-05T08:44:45.939Z,95.20
2023-02-05T08:54:51.384Z,99.93
2023-02-05T09:05:07.630Z,100.13
2023-02-05T09:15:13.883Z,99.83
2023-02-05T09:25:17.752Z,90.90
2023-02-05T09:35:23.267Z,88.33
2023-02-05T09:45:53.808Z,89.33
2023-02-05T09:56:00.833Z,87.80
2023-02-05T10:06:22.159Z,90.67
2023-02-05T10:16:54.352Z,108.10
2023-02-05T10:27:07.661Z,94.00
2023-02-05T10:37:19.133Z,86.97
2023-02-05T10:47:44.469Z,88.50
2023-02-05T10:57:49.570Z,93.90
2023-02-05T11:07:55.438Z,87.53
2023-02-05T11:18:04.776Z,103.67
2023-02-05T11:28:21.811Z,88.47
2023-02-05T11:38:36.524Z,102.47
2023-02-05T11:48:44.436Z,118.23
2023-02-05T11:59:01.072Z,91.17
2023-02-05T12:09:05.944Z,88.50
2023-02-05T12:19:20.461Z,85.73
2023-02-05T12:29:47.992Z,84.10
2023-02-05T12:39:56.119Z,85.40
2023-02-05T12:50:13.917Z,81.87
2023-02-05T13:00:25.017Z,84.37
2023-02-05T13:10:35.043Z,86.37
2023-02-05T13:21:01.834Z,101.23
2023-02-05T13:31:23.885Z,87.57
2023-02-05T13:41:51.373Z,88.87
2023-02-05T13:52:12.169Z,88.40
2023-02-05T14:02:42.980Z,86.27
2023-02-05T14:12:46.885Z,84.77
2023-02-05T14:22:52.965Z,93.57
2023-02-05T14:33:02.785Z,88.73
2023-02-05T14:43:18.941Z,87.40
2023-02-05T14:53:29.424Z,132.47
2023-02-05T15:03:40.292Z,114.53
2023-02-05T15:13:44.395Z,90.67
2023-02-05T15:23:58.560Z,99.77
2023-02-05T15:34:28.749Z,89.83
2023-02-05T15:44:37.995Z,87.83
2023-02-05T15:54:42.033Z,112.23
2023-02-05T16:04:57.327Z,132.77
2023-02-05T16:15:03.131Z,98.67
2023-02-05T16:25:24.897Z,88.93
2023-02-05T16:35:31.421Z,103.20
2023-02-05T16:45:36.550Z,107.20
2023-02-05T16:55:45.265Z,100.63
2023-02-05T17:06:01.580Z,115.73
2023-02-05T17:16:29.670Z,104.30
2023-02-05T17:26:39.451Z,85.90
2023-02-05T17:36:44.050Z,87.23
2023-02-05T17:46:50.863Z,89.33
2023-02-05T17:56:58.278Z,108.60
2023-02-05T18:07:03.451Z,108.37
2023-02-05T18:17:07.220Z,111.30
2023-02-05T18:27:12.463Z,103.43
2023-02-05T18:37:16.798Z,114.87
2023-02-05T18:47:21.880Z,115.13
2023-02-05T18:57:25.721Z,111.90
2023-02-05T19:07:30.747Z,116.10
2023-02-05T19:17:34.576Z,112.00
2023-02-05T19:27:39.782Z,108.70
2023-02-05T19:37:43.814Z,109.53
2023-02-05T19:47:50.401Z,119.27
2023-02-05T19:57:54.418Z,109.60
2023-02-05T20:07:59.838Z,115.70
2023-02-05T20:18:04.207Z,109.70
2023-02-05T20:28:09.590Z,108.77
2023-02-05T20:38:14.024Z,113.23
2023-02-05T20:48:19.609Z,106.23
2023-02-05T20:58:24.913Z,108.63
2023-02-05T21:08:30.535Z,106.77
2023-02-05T21:18:35.127Z,108.00
2023-02-05T21:28:40.376Z,112.13
2023-02-05T21:38:44.505Z,110.10
2023-02-05T21:48:52.674Z,112.97
2023-02-05T21:58:57.271Z,118.47
2023-02-05T22:09:04.725Z,113.43
2023-02-05T22:19:11.485Z,119.40
2023-02-05T22:29:18.812Z,116.00
2023-02-05T22:39:22.642Z,112.97
2023-02-05T22:49:27.829Z,148.70
2023-02-05T22:59:31.646Z,117.40
2023-02-05T23:09:36.910Z,117.43
2023-02-05T23:19:40.629Z,113.90
2023-02-05T23:29:45.814Z,112.47
2023-02-05T23:39:49.559Z,113.83
2023-02-05T23:49:55.420Z,110.87
2023-02-05T23:59:59.244Z,97.27
